Terminal Aerodrome Forecast
Issued by NWS

Home | Current Version | Previous Version | Text Only | Print | Product List | Glossary On
Versions: 1 2 3 4 5 6 7 8 9 10 11 12 13 14 15 16
000
FTUS41 KAKQ 302300
TAFPHF
TAF
KPHF 302337Z 3100/3124 16005KT P6SM BKN250
     FM310900 23005KT 5SM BR BKN035
     FM311400 24010KT P6SM SCT050 SCT250=

USA.gov is the U.S. government's official web portal to all federal, state and local government web resources and services.